sensor_id;sensor_type;location;lat;lon;timestamp;temperature;humidity
5689;DHT22;2869;50.432;8.680;2022-10-12T00:01:19;6.70;99.90
5689;DHT22;2869;50.432;8.680;2022-10-12T00:03:46;6.70;99.90
5689;DHT22;2869;50.432;8.680;2022-10-12T00:06:16;6.70;99.90
5689;DHT22;2869;50.432;8.680;2022-10-12T00:08:43;6.70;99.90
5689;DHT22;2869;50.432;8.680;2022-10-12T00:11:12;6.70;99.90
5689;DHT22;2869;50.432;8.680;2022-10-12T00:13:39;6.70;99.90
5689;DHT22;2869;50.432;8.680;2022-10-12T00:16:09;6.70;99.90
5689;DHT22;2869;50.432;8.680;2022-10-12T00:18:36;6.70;99.90
5689;DHT22;2869;50.432;8.680;2022-10-12T00:21:05;6.70;99.90
5689;DHT22;2869;50.432;8.680;2022-10-12T00:23:33;6.70;99.90
5689;DHT22;2869;50.432;8.680;2022-10-12T00:26:02;6.60;99.90
5689;DHT22;2869;50.432;8.680;2022-10-12T00:28:29;6.60;99.90
5689;DHT22;2869;50.432;8.680;2022-10-12T00:30:56;6.60;99.90
5689;DHT22;2869;50.432;8.680;2022-10-12T00:33:24;6.60;99.90
5689;DHT22;2869;50.432;8.680;2022-10-12T00:35:52;6.60;99.90
5689;DHT22;2869;50.432;8.680;2022-10-12T00:38:19;6.60;99.90
5689;DHT22;2869;50.432;8.680;2022-10-12T00:40:46;6.50;99.90
5689;DHT22;2869;50.432;8.680;2022-10-12T00:43:24;6.60;99.90
5689;DHT22;2869;50.432;8.680;2022-10-12T00:45:51;6.60;99.90
5689;DHT22;2869;50.432;8.680;2022-10-12T00:48:18;6.50;99.90
5689;DHT22;2869;50.432;8.680;2022-10-12T00:50:46;6.50;99.90
5689;DHT22;2869;50.432;8.680;2022-10-12T00:53:15;6.50;99.90
5689;DHT22;2869;50.432;8.680;2022-10-12T00:55:46;6.50;99.90
5689;DHT22;2869;50.432;8.680;2022-10-12T00:58:14;6.50;99.90
5689;DHT22;2869;50.432;8.680;2022-10-12T01:00:42;6.50;99.90
5689;DHT22;2869;50.432;8.680;2022-10-12T01:03:09;6.50;99.90
5689;DHT22;2869;50.432;8.680;2022-10-12T01:05:38;6.40;99.90
5689;DHT22;2869;50.432;8.680;2022-10-12T01:08:07;6.40;99.90
5689;DHT22;2869;50.432;8.680;2022-10-12T01:10:34;6.30;99.90
5689;DHT22;2869;50.432;8.680;2022-10-12T01:13:00;6.30;99.90
5689;DHT22;2869;50.432;8.680;2022-10-12T01:15:33;6.20;99.90
5689;DHT22;2869;50.432;8.680;2022-10-12T01:18:05;6.20;99.90
5689;DHT22;2869;50.432;8.680;2022-10-12T01:20:52;6.20;99.90
5689;DHT22;2869;50.432;8.680;2022-10-12T01:23:46;6.10;99.90
5689;DHT22;2869;50.432;8.680;2022-10-12T01:29:38;6.00;99.90
5689;DHT22;2869;50.432;8.680;2022-10-12T01:32:14;6.00;99.90
5689;DHT22;2869;50.432;8.680;2022-10-12T01:34:45;6.00;99.90
5689;DHT22;2869;50.432;8.680;2022-10-12T01:37:19;5.90;99.90
5689;DHT22;2869;50.432;8.680;2022-10-12T01:39:51;5.90;99.90
5689;DHT22;2869;50.432;8.680;2022-10-12T01:42:22;5.90;99.90
5689;DHT22;2869;50.432;8.680;2022-10-12T01:44:50;5.90;99.90
5689;DHT22;2869;50.432;8.680;2022-10-12T01:47:27;5.90;99.90
5689;DHT22;2869;50.432;8.680;2022-10-12T01:49:53;5.80;99.90
5689;DHT22;2869;50.432;8.680;2022-10-12T01:52:26;5.80;99.90
5689;DHT22;2869;50.432;8.680;2022-10-12T01:55:02;5.90;99.90
5689;DHT22;2869;50.432;8.680;2022-10-12T01:57:38;5.80;99.90
5689;DHT22;2869;50.432;8.680;2022-10-12T02:00:10;5.80;99.90
5689;DHT22;2869;50.432;8.680;2022-10-12T02:02:47;5.80;99.90
5689;DHT22;2869;50.432;8.680;2022-10-12T02:05:23;5.80;99.90
5689;DHT22;2869;50.432;8.680;2022-10-12T02:07:56;5.80;99.90
5689;DHT22;2869;50.432;8.680;2022-10-12T02:10:28;5.80;99.90
5689;DHT22;2869;50.432;8.680;2022-10-12T02:12:57;5.80;99.90
5689;DHT22;2869;50.432;8.680;2022-10-12T02:15:28;5.80;99.90
5689;DHT22;2869;50.432;8.680;2022-10-12T02:17:57;5.80;99.90
5689;DHT22;2869;50.432;8.680;2022-10-12T02:20:26;5.70;99.90
5689;DHT22;2869;50.432;8.680;2022-10-12T02:22:53;5.70;99.90
5689;DHT22;2869;50.432;8.680;2022-10-12T02:25:22;5.70;99.90
5689;DHT22;2869;50.432;8.680;2022-10-12T02:27:54;5.70;99.90
5689;DHT22;2869;50.432;8.680;2022-10-12T02:30:23;5.60;99.90
5689;DHT22;2869;50.432;8.680;2022-10-12T02:32:53;5.60;99.90
5689;DHT22;2869;50.432;8.680;2022-10-12T02:35:26;5.60;99.90
5689;DHT22;2869;50.432;8.680;2022-10-12T02:37:59;5.50;99.90
5689;DHT22;2869;50.432;8.680;2022-10-12T02:40:32;5.60;99.90
5689;DHT22;2869;50.432;8.680;2022-10-12T02:43:03;5.50;99.90
5689;DHT22;2869;50.432;8.680;2022-10-12T02:45:32;5.50;99.90
5689;DHT22;2869;50.432;8.680;2022-10-12T02:48:00;5.50;99.90
5689;DHT22;2869;50.432;8.680;2022-10-12T02:50:29;5.50;99.90
5689;DHT22;2869;50.432;8.680;2022-10-12T02:52:56;5.50;99.90
5689;DHT22;2869;50.432;8.680;2022-10-12T02:55:24;5.50;99.90
5689;DHT22;2869;50.432;8.680;2022-10-12T02:57:50;5.50;99.90
5689;DHT22;2869;50.432;8.680;2022-10-12T03:00:17;5.50;99.90
5689;DHT22;2869;50.432;8.680;2022-10-12T03:02:44;5.50;99.90
5689;DHT22;2869;50.432;8.680;2022-10-12T03:05:11;5.50;99.90
5689;DHT22;2869;50.432;8.680;2022-10-12T03:07:39;5.40;99.90
5689;DHT22;2869;50.432;8.680;2022-10-12T03:10:06;5.40;99.90
5689;DHT22;2869;50.432;8.680;2022-10-12T03:12:32;5.40;99.90
5689;DHT22;2869;50.432;8.680;2022-10-12T03:14:59;5.40;99.90
5689;DHT22;2869;50.432;8.680;2022-10-12T03:17:26;5.40;99.90
5689;DHT22;2869;50.432;8.680;2022-10-12T03:19:52;5.40;99.90
5689;DHT22;2869;50.432;8.680;2022-10-12T03:22:19;5.40;99.90
5689;DHT22;2869;50.432;8.680;2022-10-12T03:24:47;5.40;99.90
5689;DHT22;2869;50.432;8.680;2022-10-12T03:27:14;5.40;99.90
5689;DHT22;2869;50.432;8.680;2022-10-12T03:29:40;5.40;99.90
5689;DHT22;2869;50.432;8.680;2022-10-12T03:32:07;5.30;99.90
5689;DHT22;2869;50.432;8.680;2022-10-12T03:34:34;5.30;99.90
5689;DHT22;2869;50.432;8.680;2022-10-12T03:37:00;5.30;99.90
5689;DHT22;2869;50.432;8.680;2022-10-12T03:39:27;5.30;99.90
5689;DHT22;2869;50.432;8.680;2022-10-12T03:41:55;5.30;99.90
5689;DHT22;2869;50.432;8.680;2022-10-12T03:44:22;5.30;99.90
5689;DHT22;2869;50.432;8.680;2022-10-12T03:46:48;5.20;99.90
5689;DHT22;2869;50.432;8.680;2022-10-12T03:49:15;5.20;99.90
5689;DHT22;2869;50.432;8.680;2022-10-12T03:51:42;5.20;99.90
5689;DHT22;2869;50.432;8.680;2022-10-12T03:54:08;5.20;99.90
5689;DHT22;2869;50.432;8.680;2022-10-12T03:56:35;5.10;99.90
5689;DHT22;2869;50.432;8.680;2022-10-12T03:59:03;5.10;99.90
5689;DHT22;2869;50.432;8.680;2022-10-12T04:01:30;5.10;99.90
5689;DHT22;2869;50.432;8.680;2022-10-12T04:03:56;5.00;99.90
5689;DHT22;2869;50.432;8.680;2022-10-12T04:06:23;5.10;99.90
5689;DHT22;2869;50.432;8.680;2022-10-12T04:08:50;5.10;99.90
5689;DHT22;2869;50.432;8.680;2022-10-12T04:11:17;5.00;99.90
5689;DHT22;2869;50.432;8.680;2022-10-12T04:13:44;5.00;99.90
5689;DHT22;2869;50.432;8.680;2022-10-12T04:16:12;5.10;99.90
5689;DHT22;2869;50.432;8.680;2022-10-12T04:18:39;5.00;99.90
5689;DHT22;2869;50.432;8.680;2022-10-12T04:21:09;5.10;99.90
5689;DHT22;2869;50.432;8.680;2022-10-12T04:23:36;5.00;99.90
5689;DHT22;2869;50.432;8.680;2022-10-12T04:26:03;5.00;99.90
5689;DHT22;2869;50.432;8.680;2022-10-12T04:28:30;5.00;99.90
5689;DHT22;2869;50.432;8.680;2022-10-12T04:30:56;5.00;99.90
5689;DHT22;2869;50.432;8.680;2022-10-12T04:33:24;5.00;99.90
5689;DHT22;2869;50.432;8.680;2022-10-12T04:35:51;5.00;99.90
5689;DHT22;2869;50.432;8.680;2022-10-12T04:38:18;5.00;99.90
5689;DHT22;2869;50.432;8.680;2022-10-12T04:40:45;5.00;99.90
5689;DHT22;2869;50.432;8.680;2022-10-12T04:43:13;5.00;99.90
5689;DHT22;2869;50.432;8.680;2022-10-12T04:45:39;5.00;99.90
5689;DHT22;2869;50.432;8.680;2022-10-12T04:48:06;4.90;99.90
5689;DHT22;2869;50.432;8.680;2022-10-12T04:50:34;4.90;99.90
5689;DHT22;2869;50.432;8.680;2022-10-12T04:53:01;4.90;99.90
5689;DHT22;2869;50.432;8.680;2022-10-12T04:55:28;4.90;99.90
5689;DHT22;2869;50.432;8.680;2022-10-12T04:57:54;4.90;99.90
5689;DHT22;2869;50.432;8.680;2022-10-12T05:00:21;4.90;99.90
5689;DHT22;2869;50.432;8.680;2022-10-12T05:02:48;4.90;99.90
5689;DHT22;2869;50.432;8.680;2022-10-12T05:05:15;4.90;99.90
5689;DHT22;2869;50.432;8.680;2022-10-12T05:07:43;4.90;99.90
5689;DHT22;2869;50.432;8.680;2022-10-12T05:10:09;4.90;99.90
5689;DHT22;2869;50.432;8.680;2022-10-12T05:12:36;4.90;99.90
5689;DHT22;2869;50.432;8.680;2022-10-12T05:15:03;4.90;99.90
5689;DHT22;2869;50.432;8.680;2022-10-12T05:17:30;4.90;99.90
5689;DHT22;2869;50.432;8.680;2022-10-12T05:19:57;4.90;99.90
5689;DHT22;2869;50.432;8.680;2022-10-12T05:22:23;4.90;99.90
5689;DHT22;2869;50.432;8.680;2022-10-12T05:24:51;4.90;99.90
5689;DHT22;2869;50.432;8.680;2022-10-12T05:27:18;4.90;99.90
5689;DHT22;2869;50.432;8.680;2022-10-12T05:29:45;4.90;99.90
5689;DHT22;2869;50.432;8.680;2022-10-12T05:32:12;4.90;99.90
5689;DHT22;2869;50.432;8.680;2022-10-12T05:34:38;4.90;99.90
5689;DHT22;2869;50.432;8.680;2022-10-12T05:37:06;4.90;99.90
5689;DHT22;2869;50.432;8.680;2022-10-12T05:39:33;4.90;99.90
5689;DHT22;2869;50.432;8.680;2022-10-12T05:42:02;4.90;99.90
5689;DHT22;2869;50.432;8.680;2022-10-12T05:44:29;4.90;99.90
5689;DHT22;2869;50.432;8.680;2022-10-12T05:46:56;4.90;99.90
5689;DHT22;2869;50.432;8.680;2022-10-12T05:49:23;4.90;99.90
5689;DHT22;2869;50.432;8.680;2022-10-12T05:51:49;4.90;99.90
5689;DHT22;2869;50.432;8.680;2022-10-12T05:54:16;4.90;99.90
5689;DHT22;2869;50.432;8.680;2022-10-12T05:56:43;4.80;99.90
5689;DHT22;2869;50.432;8.680;2022-10-12T05:59:11;4.90;99.90
5689;DHT22;2869;50.432;8.680;2022-10-12T06:01:37;4.90;99.90
5689;DHT22;2869;50.432;8.680;2022-10-12T06:04:04;4.90;99.90
5689;DHT22;2869;50.432;8.680;2022-10-12T06:06:31;4.90;99.90
5689;DHT22;2869;50.432;8.680;2022-10-12T06:08:58;5.00;99.90
5689;DHT22;2869;50.432;8.680;2022-10-12T06:11:24;5.00;99.90
5689;DHT22;2869;50.432;8.680;2022-10-12T06:13:51;5.10;99.90
5689;DHT22;2869;50.432;8.680;2022-10-12T06:16:20;5.20;99.90
5689;DHT22;2869;50.432;8.680;2022-10-12T06:18:47;5.30;99.90
5689;DHT22;2869;50.432;8.680;2022-10-12T06:21:14;5.50;99.90
5689;DHT22;2869;50.432;8.680;2022-10-12T06:23:41;5.80;99.90
5689;DHT22;2869;50.432;8.680;2022-10-12T06:26:07;6.30;99.90
5689;DHT22;2869;50.432;8.680;2022-10-12T06:28:34;6.70;99.90
5689;DHT22;2869;50.432;8.680;2022-10-12T06:31:01;7.20;99.90
5689;DHT22;2869;50.432;8.680;2022-10-12T06:33:29;7.60;99.90
5689;DHT22;2869;50.432;8.680;2022-10-12T06:35:55;8.30;99.90
5689;DHT22;2869;50.432;8.680;2022-10-12T06:38:22;8.80;99.90
5689;DHT22;2869;50.432;8.680;2022-10-12T06:40:49;9.10;99.90
5689;DHT22;2869;50.432;8.680;2022-10-12T06:43:16;9.60;99.90
5689;DHT22;2869;50.432;8.680;2022-10-12T06:45:43;10.10;99.90
5689;DHT22;2869;50.432;8.680;2022-10-12T06:48:10;10.60;99.90
5689;DHT22;2869;50.432;8.680;2022-10-12T06:50:38;10.90;99.90
5689;DHT22;2869;50.432;8.680;2022-10-12T06:53:05;11.10;99.90
5689;DHT22;2869;50.432;8.680;2022-10-12T06:55:31;11.30;99.90
5689;DHT22;2869;50.432;8.680;2022-10-12T06:57:58;11.60;99.90
5689;DHT22;2869;50.432;8.680;2022-10-12T07:00:25;11.40;99.90
5689;DHT22;2869;50.432;8.680;2022-10-12T07:02:51;11.00;99.90
5689;DHT22;2869;50.432;8.680;2022-10-12T07:05:18;10.50;99.90
5689;DHT22;2869;50.432;8.680;2022-10-12T07:07:47;10.10;99.90
5689;DHT22;2869;50.432;8.680;2022-10-12T07:10:14;10.30;99.90
5689;DHT22;2869;50.432;8.680;2022-10-12T07:12:41;11.10;99.90
5689;DHT22;2869;50.432;8.680;2022-10-12T07:15:08;11.60;99.90
5689;DHT22;2869;50.432;8.680;2022-10-12T07:17:35;11.60;99.90
5689;DHT22;2869;50.432;8.680;2022-10-12T07:20:02;11.30;99.90
5689;DHT22;2869;50.432;8.680;2022-10-12T07:22:30;11.20;99.90
5689;DHT22;2869;50.432;8.680;2022-10-12T07:24:58;11.10;99.90
5689;DHT22;2869;50.432;8.680;2022-10-12T07:27:25;10.80;99.90
5689;DHT22;2869;50.432;8.680;2022-10-12T07:29:51;11.00;99.90
5689;DHT22;2869;50.432;8.680;2022-10-12T07:32:18;11.60;99.90
5689;DHT22;2869;50.432;8.680;2022-10-12T07:34:45;11.80;99.90
5689;DHT22;2869;50.432;8.680;2022-10-12T07:37:11;11.40;99.90
5689;DHT22;2869;50.432;8.680;2022-10-12T07:39:39;10.80;99.90
5689;DHT22;2869;50.432;8.680;2022-10-12T07:42:08;10.70;99.90
5689;DHT22;2869;50.432;8.680;2022-10-12T07:44:35;10.80;99.90
5689;DHT22;2869;50.432;8.680;2022-10-12T07:47:02;10.90;99.90
5689;DHT22;2869;50.432;8.680;2022-10-12T07:49:29;11.10;99.90
5689;DHT22;2869;50.432;8.680;2022-10-12T07:51:55;11.40;99.90
5689;DHT22;2869;50.432;8.680;2022-10-12T07:54:22;11.70;99.90
5689;DHT22;2869;50.432;8.680;2022-10-12T07:56:49;11.90;99.90
5689;DHT22;2869;50.432;8.680;2022-10-12T07:59:17;12.10;99.90
5689;DHT22;2869;50.432;8.680;2022-10-12T08:01:43;12.20;99.90
5689;DHT22;2869;50.432;8.680;2022-10-12T08:04:10;12.00;99.90
5689;DHT22;2869;50.432;8.680;2022-10-12T08:06:37;12.00;99.90
5689;DHT22;2869;50.432;8.680;2022-10-12T08:09:03;12.00;99.90
5689;DHT22;2869;50.432;8.680;2022-10-12T08:11:30;12.10;99.90
5689;DHT22;2869;50.432;8.680;2022-10-12T08:13:57;12.30;99.90
5689;DHT22;2869;50.432;8.680;2022-10-12T08:16:25;12.10;99.90
5689;DHT22;2869;50.432;8.680;2022-10-12T08:18:51;12.00;99.90
5689;DHT22;2869;50.432;8.680;2022-10-12T08:21:18;11.80;99.90
5689;DHT22;2869;50.432;8.680;2022-10-12T08:23:45;11.80;99.90
5689;DHT22;2869;50.432;8.680;2022-10-12T08:26:13;12.10;99.90
5689;DHT22;2869;50.432;8.680;2022-10-12T08:28:41;12.40;99.90
5689;DHT22;2869;50.432;8.680;2022-10-12T08:31:09;12.90;99.90
5689;DHT22;2869;50.432;8.680;2022-10-12T08:33:38;13.30;99.90
5689;DHT22;2869;50.432;8.680;2022-10-12T08:36:05;13.70;99.90
5689;DHT22;2869;50.432;8.680;2022-10-12T08:38:33;13.80;99.90
5689;DHT22;2869;50.432;8.680;2022-10-12T08:41:12;14.00;99.90
5689;DHT22;2869;50.432;8.680;2022-10-12T08:43:58;14.20;99.90
5689;DHT22;2869;50.432;8.680;2022-10-12T08:46:30;14.40;99.90
5689;DHT22;2869;50.432;8.680;2022-10-12T08:49:01;14.60;99.90
5689;DHT22;2869;50.432;8.680;2022-10-12T08:51:31;14.70;99.90
5689;DHT22;2869;50.432;8.680;2022-10-12T08:54:02;14.90;99.90
5689;DHT22;2869;50.432;8.680;2022-10-12T08:56:30;15.10;99.90
5689;DHT22;2869;50.432;8.680;2022-10-12T08:59:00;15.30;99.90
5689;DHT22;2869;50.432;8.680;2022-10-12T09:01:29;15.40;99.90
5689;DHT22;2869;50.432;8.680;2022-10-12T09:04:12;15.40;99.90
5689;DHT22;2869;50.432;8.680;2022-10-12T09:06:46;15.70;99.90
5689;DHT22;2869;50.432;8.680;2022-10-12T09:09:26;15.90;99.90
5689;DHT22;2869;50.432;8.680;2022-10-12T09:12:11;16.20;99.90
5689;DHT22;2869;50.432;8.680;2022-10-12T09:14:41;16.40;99.90
5689;DHT22;2869;50.432;8.680;2022-10-12T09:17:21;16.50;99.90
5689;DHT22;2869;50.432;8.680;2022-10-12T09:19:57;16.80;99.90
5689;DHT22;2869;50.432;8.680;2022-10-12T09:22:26;16.90;99.90
5689;DHT22;2869;50.432;8.680;2022-10-12T09:24:55;17.20;99.90
5689;DHT22;2869;50.432;8.680;2022-10-12T09:27:22;17.30;99.90
5689;DHT22;2869;50.432;8.680;2022-10-12T09:29:51;17.40;99.90
5689;DHT22;2869;50.432;8.680;2022-10-12T09:32:33;17.30;99.90
5689;DHT22;2869;50.432;8.680;2022-10-12T09:35:03;17.40;99.90
5689;DHT22;2869;50.432;8.680;2022-10-12T09:37:34;17.60;99.90
5689;DHT22;2869;50.432;8.680;2022-10-12T09:40:01;17.00;99.90
5689;DHT22;2869;50.432;8.680;2022-10-12T09:42:28;16.90;99.90
5689;DHT22;2869;50.432;8.680;2022-10-12T09:44:58;16.90;99.90
5689;DHT22;2869;50.432;8.680;2022-10-12T09:47:28;16.80;99.90
5689;DHT22;2869;50.432;8.680;2022-10-12T09:49:57;16.70;99.90
5689;DHT22;2869;50.432;8.680;2022-10-12T09:52:27;16.80;99.90
5689;DHT22;2869;50.432;8.680;2022-10-12T09:54:58;16.70;99.90
5689;DHT22;2869;50.432;8.680;2022-10-12T09:57:27;16.80;99.90
5689;DHT22;2869;50.432;8.680;2022-10-12T09:59:54;16.90;99.90
5689;DHT22;2869;50.432;8.680;2022-10-12T10:02:22;17.10;99.90
5689;DHT22;2869;50.432;8.680;2022-10-12T10:04:50;16.60;99.90
5689;DHT22;2869;50.432;8.680;2022-10-12T10:07:25;16.50;99.90
5689;DHT22;2869;50.432;8.680;2022-10-12T10:10:14;16.40;99.90
5689;DHT22;2869;50.432;8.680;2022-10-12T10:12:46;16.60;99.90
5689;DHT22;2869;50.432;8.680;2022-10-12T10:15:23;16.80;99.90
5689;DHT22;2869;50.432;8.680;2022-10-12T10:17:52;16.90;99.90
5689;DHT22;2869;50.432;8.680;2022-10-12T10:20:25;17.20;99.90
5689;DHT22;2869;50.432;8.680;2022-10-12T10:22:55;17.40;99.90
5689;DHT22;2869;50.432;8.680;2022-10-12T10:25:22;17.80;99.90
5689;DHT22;2869;50.432;8.680;2022-10-12T10:27:50;18.20;99.90
5689;DHT22;2869;50.432;8.680;2022-10-12T10:30:36;18.70;99.90
5689;DHT22;2869;50.432;8.680;2022-10-12T10:33:13;19.00;99.90
5689;DHT22;2869;50.432;8.680;2022-10-12T10:35:40;19.20;99.90
5689;DHT22;2869;50.432;8.680;2022-10-12T10:38:19;19.00;99.90
5689;DHT22;2869;50.432;8.680;2022-10-12T10:40:49;19.00;99.90
5689;DHT22;2869;50.432;8.680;2022-10-12T10:43:20;18.90;99.90
5689;DHT22;2869;50.432;8.680;2022-10-12T10:45:50;19.00;99.90
5689;DHT22;2869;50.432;8.680;2022-10-12T10:48:19;18.80;99.90
5689;DHT22;2869;50.432;8.680;2022-10-12T10:50:51;18.70;99.90
5689;DHT22;2869;50.432;8.680;2022-10-12T10:53:21;18.70;99.90
5689;DHT22;2869;50.432;8.680;2022-10-12T10:55:51;18.30;99.90
5689;DHT22;2869;50.432;8.680;2022-10-12T10:58:25;18.00;99.90
5689;DHT22;2869;50.432;8.680;2022-10-12T11:00:55;17.50;99.90
5689;DHT22;2869;50.432;8.680;2022-10-12T11:03:29;17.50;99.90
5689;DHT22;2869;50.432;8.680;2022-10-12T11:06:03;17.80;99.90
5689;DHT22;2869;50.432;8.680;2022-10-12T11:08:35;18.00;99.90
5689;DHT22;2869;50.432;8.680;2022-10-12T11:11:07;18.40;99.90
5689;DHT22;2869;50.432;8.680;2022-10-12T11:13:38;18.50;99.90
5689;DHT22;2869;50.432;8.680;2022-10-12T11:16:13;18.50;99.90
5689;DHT22;2869;50.432;8.680;2022-10-12T11:18:45;18.50;99.90
5689;DHT22;2869;50.432;8.680;2022-10-12T11:21:19;18.10;99.90
5689;DHT22;2869;50.432;8.680;2022-10-12T11:23:50;17.70;99.90
5689;DHT22;2869;50.432;8.680;2022-10-12T11:26:22;17.60;99.90
5689;DHT22;2869;50.432;8.680;2022-10-12T11:28:52;17.70;99.90
5689;DHT22;2869;50.432;8.680;2022-10-12T11:31:23;17.60;99.90
5689;DHT22;2869;50.432;8.680;2022-10-12T11:33:51;17.50;99.90
5689;DHT22;2869;50.432;8.680;2022-10-12T11:36:21;17.50;99.90
5689;DHT22;2869;50.432;8.680;2022-10-12T11:38:53;17.50;99.90
5689;DHT22;2869;50.432;8.680;2022-10-12T11:41:25;17.20;99.90
5689;DHT22;2869;50.432;8.680;2022-10-12T11:43:59;16.90;99.90
5689;DHT22;2869;50.432;8.680;2022-10-12T11:46:31;16.80;99.90
5689;DHT22;2869;50.432;8.680;2022-10-12T11:49:01;16.70;99.90
5689;DHT22;2869;50.432;8.680;2022-10-12T11:51:28;16.80;99.90
5689;DHT22;2869;50.432;8.680;2022-10-12T11:54:01;16.90;99.90
5689;DHT22;2869;50.432;8.680;2022-10-12T11:56:32;16.90;99.90
5689;DHT22;2869;50.432;8.680;2022-10-12T11:59:04;16.80;99.90
5689;DHT22;2869;50.432;8.680;2022-10-12T12:01:55;16.70;99.90
5689;DHT22;2869;50.432;8.680;2022-10-12T12:04:28;16.80;99.90
5689;DHT22;2869;50.432;8.680;2022-10-12T12:06:58;17.00;99.90
5689;DHT22;2869;50.432;8.680;2022-10-12T12:09:36;17.30;99.90
5689;DHT22;2869;50.432;8.680;2022-10-12T12:12:18;17.40;99.90
5689;DHT22;2869;50.432;8.680;2022-10-12T12:17:30;17.20;99.90
5689;DHT22;2869;50.432;8.680;2022-10-12T12:19:57;17.30;99.90
5689;DHT22;2869;50.432;8.680;2022-10-12T12:22:32;17.60;99.90
5689;DHT22;2869;50.432;8.680;2022-10-12T12:25:18;17.90;99.90
5689;DHT22;2869;50.432;8.680;2022-10-12T12:27:48;18.10;99.90
5689;DHT22;2869;50.432;8.680;2022-10-12T12:30:28;18.00;99.90
5689;DHT22;2869;50.432;8.680;2022-10-12T12:32:57;18.10;99.90
5689;DHT22;2869;50.432;8.680;2022-10-12T12:35:28;18.10;99.90
5689;DHT22;2869;50.432;8.680;2022-10-12T12:38:01;18.40;99.90
5689;DHT22;2869;50.432;8.680;2022-10-12T12:40:30;18.60;99.90
5689;DHT22;2869;50.432;8.680;2022-10-12T12:43:17;18.50;99.90
5689;DHT22;2869;50.432;8.680;2022-10-12T12:45:53;18.70;99.90
5689;DHT22;2869;50.432;8.680;2022-10-12T12:51:22;18.70;99.90
5689;DHT22;2869;50.432;8.680;2022-10-12T12:53:52;19.00;99.90
5689;DHT22;2869;50.432;8.680;2022-10-12T12:56:29;19.00;99.90
5689;DHT22;2869;50.432;8.680;2022-10-12T13:02:02;18.70;99.90
5689;DHT22;2869;50.432;8.680;2022-10-12T13:05:03;18.60;99.90
5689;DHT22;2869;50.432;8.680;2022-10-12T13:07:48;18.60;99.90
5689;DHT22;2869;50.432;8.680;2022-10-12T13:10:29;18.70;99.90
5689;DHT22;2869;50.432;8.680;2022-10-12T13:13:14;18.70;99.90
5689;DHT22;2869;50.432;8.680;2022-10-12T13:15:53;18.70;99.90
5689;DHT22;2869;50.432;8.680;2022-10-12T13:21:21;19.20;99.90
5689;DHT22;2869;50.432;8.680;2022-10-12T13:23:51;19.40;99.90
5689;DHT22;2869;50.432;8.680;2022-10-12T13:26:23;19.40;99.90
5689;DHT22;2869;50.432;8.680;2022-10-12T13:28:53;19.20;99.90
5689;DHT22;2869;50.432;8.680;2022-10-12T13:31:24;19.00;99.90
5689;DHT22;2869;50.432;8.680;2022-10-12T13:33:59;18.70;99.90
5689;DHT22;2869;50.432;8.680;2022-10-12T13:36:28;18.60;99.90
5689;DHT22;2869;50.432;8.680;2022-10-12T13:38:56;18.50;99.90
5689;DHT22;2869;50.432;8.680;2022-10-12T13:41:24;18.30;99.90
5689;DHT22;2869;50.432;8.680;2022-10-12T13:43:57;18.30;99.90
5689;DHT22;2869;50.432;8.680;2022-10-12T13:46:37;18.10;99.90
5689;DHT22;2869;50.432;8.680;2022-10-12T13:49:12;18.00;99.90
5689;DHT22;2869;50.432;8.680;2022-10-12T13:51:40;17.90;99.90
5689;DHT22;2869;50.432;8.680;2022-10-12T13:54:14;17.80;99.90
5689;DHT22;2869;50.432;8.680;2022-10-12T13:56:41;17.70;99.90
5689;DHT22;2869;50.432;8.680;2022-10-12T13:59:15;17.50;99.90
5689;DHT22;2869;50.432;8.680;2022-10-12T14:01:51;17.40;99.90
5689;DHT22;2869;50.432;8.680;2022-10-12T14:04:18;17.50;99.90
5689;DHT22;2869;50.432;8.680;2022-10-12T14:06:54;17.60;99.90
5689;DHT22;2869;50.432;8.680;2022-10-12T14:09:24;17.70;99.90
5689;DHT22;2869;50.432;8.680;2022-10-12T14:11:53;17.70;99.90
5689;DHT22;2869;50.432;8.680;2022-10-12T14:14:29;17.80;99.90
5689;DHT22;2869;50.432;8.680;2022-10-12T14:16:56;17.80;99.90
5689;DHT22;2869;50.432;8.680;2022-10-12T14:19:34;17.80;99.90
5689;DHT22;2869;50.432;8.680;2022-10-12T14:22:02;17.60;99.90
5689;DHT22;2869;50.432;8.680;2022-10-12T14:24:29;17.50;99.90
5689;DHT22;2869;50.432;8.680;2022-10-12T14:26:58;17.40;99.90
5689;DHT22;2869;50.432;8.680;2022-10-12T14:29:31;17.40;99.90
5689;DHT22;2869;50.432;8.680;2022-10-12T14:32:00;17.40;99.90
5689;DHT22;2869;50.432;8.680;2022-10-12T14:34:37;17.30;99.90
5689;DHT22;2869;50.432;8.680;2022-10-12T14:37:17;17.10;99.90
5689;DHT22;2869;50.432;8.680;2022-10-12T14:39:47;17.00;99.90
5689;DHT22;2869;50.432;8.680;2022-10-12T14:42:19;17.00;99.90
5689;DHT22;2869;50.432;8.680;2022-10-12T14:44:47;17.00;99.90
5689;DHT22;2869;50.432;8.680;2022-10-12T14:47:18;17.00;99.90
5689;DHT22;2869;50.432;8.680;2022-10-12T14:49:46;16.80;99.90
5689;DHT22;2869;50.432;8.680;2022-10-12T14:52:20;16.70;99.90
5689;DHT22;2869;50.432;8.680;2022-10-12T14:54:51;16.70;99.90
5689;DHT22;2869;50.432;8.680;2022-10-12T14:57:18;16.60;99.90
5689;DHT22;2869;50.432;8.680;2022-10-12T14:59:47;16.50;99.90
5689;DHT22;2869;50.432;8.680;2022-10-12T15:02:16;16.50;99.90
5689;DHT22;2869;50.432;8.680;2022-10-12T15:04:43;16.50;99.90
5689;DHT22;2869;50.432;8.680;2022-10-12T15:07:14;16.60;99.90
5689;DHT22;2869;50.432;8.680;2022-10-12T15:09:42;16.60;99.90
5689;DHT22;2869;50.432;8.680;2022-10-12T15:12:11;16.60;99.90
5689;DHT22;2869;50.432;8.680;2022-10-12T15:14:38;16.70;99.90
5689;DHT22;2869;50.432;8.680;2022-10-12T15:17:08;16.60;99.90
5689;DHT22;2869;50.432;8.680;2022-10-12T15:19:35;16.60;99.90
5689;DHT22;2869;50.432;8.680;2022-10-12T15:22:02;16.50;99.90
5689;DHT22;2869;50.432;8.680;2022-10-12T15:24:29;16.50;99.90
5689;DHT22;2869;50.432;8.680;2022-10-12T15:26:55;16.40;99.90
5689;DHT22;2869;50.432;8.680;2022-10-12T15:29:22;16.40;99.90
5689;DHT22;2869;50.432;8.680;2022-10-12T15:31:49;16.30;99.90
5689;DHT22;2869;50.432;8.680;2022-10-12T15:34:18;16.30;99.90
5689;DHT22;2869;50.432;8.680;2022-10-12T15:36:45;16.30;99.90
5689;DHT22;2869;50.432;8.680;2022-10-12T15:39:12;16.40;99.90
5689;DHT22;2869;50.432;8.680;2022-10-12T15:41:38;16.30;99.90
5689;DHT22;2869;50.432;8.680;2022-10-12T15:44:05;16.30;99.90
5689;DHT22;2869;50.432;8.680;2022-10-12T15:46:32;16.30;99.90
5689;DHT22;2869;50.432;8.680;2022-10-12T15:48:58;16.30;99.90
5689;DHT22;2869;50.432;8.680;2022-10-12T15:51:26;16.30;99.90
5689;DHT22;2869;50.432;8.680;2022-10-12T15:53:54;16.30;99.90
5689;DHT22;2869;50.432;8.680;2022-10-12T15:56:21;16.30;99.90
5689;DHT22;2869;50.432;8.680;2022-10-12T15:58:48;16.30;99.90
5689;DHT22;2869;50.432;8.680;2022-10-12T16:01:16;16.30;99.90
5689;DHT22;2869;50.432;8.680;2022-10-12T16:03:43;16.30;99.90
5689;DHT22;2869;50.432;8.680;2022-10-12T16:06:10;16.20;99.90
5689;DHT22;2869;50.432;8.680;2022-10-12T16:08:38;16.20;99.90
5689;DHT22;2869;50.432;8.680;2022-10-12T16:11:07;16.10;99.90
5689;DHT22;2869;50.432;8.680;2022-10-12T16:13:34;16.10;99.90
5689;DHT22;2869;50.432;8.680;2022-10-12T16:16:01;16.00;99.90
5689;DHT22;2869;50.432;8.680;2022-10-12T16:18:27;16.00;99.90
5689;DHT22;2869;50.432;8.680;2022-10-12T16:20:54;15.90;99.90
5689;DHT22;2869;50.432;8.680;2022-10-12T16:23:23;15.90;99.90
5689;DHT22;2869;50.432;8.680;2022-10-12T16:25:51;15.80;99.90
5689;DHT22;2869;50.432;8.680;2022-10-12T16:28:18;15.70;99.90
5689;DHT22;2869;50.432;8.680;2022-10-12T16:30:45;15.60;99.90
5689;DHT22;2869;50.432;8.680;2022-10-12T16:33:11;15.50;99.90
5689;DHT22;2869;50.432;8.680;2022-10-12T16:35:38;15.40;99.90
5689;DHT22;2869;50.432;8.680;2022-10-12T16:38:05;15.30;99.90